Terminal Aerodrome Forecast
Issued by NWS Wakefield, VA

Home | Current Version | Previous Version | Text Only | Print | Product List | Glossary On
Versions: 1 2 3 4 5 6 7 8 9 10 11 12 13 14 15 16 17 18
804
FTUS41 KAKQ 251021 AAB
TAFSBY
TAF AMD
KSBY 251021Z 2510/2606 00000KT P6SM SKC
      TEMPO 2511/2513 4SM BR SKC
     FM251500 22007KT P6SM SKC
     FM260000 27005KT P6SM OVC090=

USA.gov is the U.S. government's official web portal to all federal, state and local government web resources and services.